KLM43E EHAM-EGNM
Flight info
| Callsign | KLM43E |
|---|---|
| Flight time | N/A |
| Altitude | 30000 |
| Route | BERGI L60 OTBED Y70 GOLES |
| Aircraft | B739/M-SDE2E3FGHIRWXY/LB1 |
Departure
| Time | 2026-04-29 21:34 |
|---|---|
| Airport | Amsterdam Airport Schiphol (EHAM) |
Arrival
| Time | N/A |
|---|---|
| Airport | Leeds Bradford Airport (EGNM) |
| Time | Latitude | Longitude | Altitude | Speed | Heading |
|---|---|---|---|---|---|
| 2026-04-29 21:15 | 52.30895 | 4.77238 | -2 ft | 0 kts | 3° |
| 2026-04-29 21:23 | 52.30877 | 4.77238 | -2 ft | 4 kts | 354° |
| 2026-04-29 21:23 | 52.30854 | 4.77241 | -2 ft | 4 kts | 32° |
| 2026-04-29 21:23 | 52.30843 | 4.77217 | -2 ft | 4 kts | 76° |
| 2026-04-29 21:24 | 52.30840 | 4.77201 | -2 ft | 0 kts | 74° |
| 2026-04-29 21:26 | 52.30843 | 4.77220 | -2 ft | 6 kts | 78° |
| 2026-04-29 21:26 | 52.30841 | 4.77304 | -2 ft | 8 kts | 94° |
| 2026-04-29 21:26 | 52.30837 | 4.77389 | -2 ft | 7 kts | 94° |
| 2026-04-29 21:26 | 52.30834 | 4.77472 | -2 ft | 7 kts | 92° |
| 2026-04-29 21:27 | 52.30833 | 4.77526 | -2 ft | 7 kts | 89° |
| 2026-04-29 21:27 | 52.30873 | 4.77607 | -2 ft | 9 kts | 15° |
| 2026-04-29 21:27 | 52.30956 | 4.77616 | -2 ft | 16 kts | 3° |
| 2026-04-29 21:27 | 52.31072 | 4.77625 | -2 ft | 17 kts | 3° |
| 2026-04-29 21:28 | 52.31186 | 4.77636 | -2 ft | 16 kts | 4° |
| 2026-04-29 21:28 | 52.31296 | 4.77645 | -2 ft | 15 kts | 2° |
| 2026-04-29 21:28 | 52.31401 | 4.77653 | -2 ft | 15 kts | 358° |
| 2026-04-29 21:28 | 52.31491 | 4.77589 | -2 ft | 14 kts | 317° |
| 2026-04-29 21:29 | 52.31553 | 4.77469 | -2 ft | 14 kts | 301° |
| 2026-04-29 21:29 | 52.31576 | 4.77326 | -2 ft | 13 kts | 268° |
| 2026-04-29 21:29 | 52.31572 | 4.77164 | -2 ft | 15 kts | 266° |
| 2026-04-29 21:29 | 52.31565 | 4.76998 | -2 ft | 14 kts | 266° |
| 2026-04-29 21:30 | 52.31559 | 4.76840 | -2 ft | 14 kts | 266° |
| 2026-04-29 21:30 | 52.31554 | 4.76689 | -2 ft | 13 kts | 266° |
| 2026-04-29 21:30 | 52.31549 | 4.76546 | -2 ft | 12 kts | 266° |
| 2026-04-29 21:30 | 52.31544 | 4.76407 | -2 ft | 12 kts | 266° |
| 2026-04-29 21:31 | 52.31539 | 4.76271 | -2 ft | 12 kts | 267° |
| 2026-04-29 21:31 | 52.31535 | 4.76139 | -2 ft | 12 kts | 268° |
| 2026-04-29 21:31 | 52.31529 | 4.75961 | -2 ft | 20 kts | 266° |
| 2026-04-29 21:31 | 52.31520 | 4.75718 | -2 ft | 21 kts | 266° |
| 2026-04-29 21:32 | 52.31512 | 4.75495 | -2 ft | 19 kts | 266° |
| 2026-04-29 21:32 | 52.31506 | 4.75282 | -2 ft | 18 kts | 268° |
| 2026-04-29 21:32 | 52.31502 | 4.75076 | -2 ft | 18 kts | 266° |
| 2026-04-29 21:32 | 52.31492 | 4.74877 | -2 ft | 17 kts | 265° |
| 2026-04-29 21:33 | 52.31489 | 4.74759 | -2 ft | 15 kts | 276° |
| 2026-04-29 21:33 | 52.31558 | 4.74664 | -2 ft | 15 kts | 355° |
| 2026-04-29 21:33 | 52.31657 | 4.74711 | -1 ft | 16 kts | 50° |
| 2026-04-29 21:33 | 52.31683 | 4.75168 | -4 ft | 66 kts | 87° |
| 2026-04-29 21:34 | 52.31704 | 4.75833 | -2 ft | 105 kts | 87° |
| 2026-04-29 21:34 | 52.31756 | 4.77283 | 8 ft | 148 kts | 86° |
| 2026-04-29 21:34 | 52.31819 | 4.79054 | 367 ft | 158 kts | 86° |
| 2026-04-29 21:34 | 52.31953 | 4.80827 | 986 ft | 156 kts | 67° |
| 2026-04-29 21:35 | 52.32715 | 4.82027 | 1715 ft | 163 kts | 34° |
| 2026-04-29 21:35 | 52.33928 | 4.82350 | 2037 ft | 202 kts | 359° |
| 2026-04-29 21:35 | 52.35350 | 4.81460 | 2274 ft | 232 kts | 343° |
| 2026-04-29 21:35 | 52.36869 | 4.80363 | 2667 ft | 244 kts | 343° |
| 2026-04-29 21:36 | 52.38436 | 4.79212 | 3227 ft | 250 kts | 337° |
| 2026-04-29 21:36 | 52.39859 | 4.77393 | 3640 ft | 274 kts | 316° |
| 2026-04-29 21:36 | 52.41190 | 4.75082 | 4217 ft | 282 kts | 316° |
| 2026-04-29 21:36 | 52.42569 | 4.72764 | 4975 ft | 285 kts | 316° |
| 2026-04-29 21:37 | 52.43966 | 4.70459 | 5759 ft | 286 kts | 317° |
| 2026-04-29 21:37 | 52.45376 | 4.68151 | 6532 ft | 288 kts | 318° |
| 2026-04-29 21:37 | 52.46851 | 4.65990 | 7211 ft | 288 kts | 333° |